Time;durP1;ratioP1;P1;durP2;ratioP2;P2;SDS_P1;SDS_P2;PMS_P1;PMS_P2;Temp;Humidity;BMP_temperature;BMP_pressure;BME280_temperature;BME280_humidity;BME280_pressure;Samples;Min_cycle;Max_cycle;Signal;HPM_P1;HPM_P2
2022/07/03 00:01:50;;;;;;;6.42;3.35;;;;;;;20.56;46.41;100244.16;1703292;83;20929;-68
2022/07/03 00:04:19;;;;;;;5.87;2.92;;;;;;;20.53;46.52;100242.01;1703460;84;21011;-68
2022/07/03 00:06:46;;;;;;;4.00;3.00;;;;;;;20.50;46.58;100240.45;1701309;82;21000;-68
2022/07/03 00:09:14;;;;;;;3.08;2.52;;;;;;;20.45;46.85;100242.72;1676442;83;21033;-68
2022/07/03 00:11:41;;;;;;;6.92;2.98;;;;;;;20.42;46.73;100240.05;1678224;85;21752;-69
2022/07/03 00:14:08;;;;;;;3.20;2.85;;;;;;;20.41;46.85;100241.16;1634005;87;20976;-68
2022/07/03 00:16:35;;;;;;;7.35;2.77;;;;;;;20.37;46.68;100240.69;1680539;84;21053;-68
2022/07/03 00:19:03;;;;;;;5.78;2.60;;;;;;;20.33;46.80;100232.84;1673709;85;21031;-69
2022/07/03 00:21:34;;;;;;;2.90;2.58;;;;;;;20.32;46.54;100226.57;1666980;85;21137;-70
2022/07/03 00:24:26;;;;;;;7.35;2.72;;;;;;;20.30;46.75;100223.84;1697044;84;21184;-68
2022/07/03 00:26:53;;;;;;;6.55;2.92;;;;;;;20.25;47.61;100222.56;1686872;84;21029;-69
2022/07/03 00:29:23;;;;;;;3.22;2.75;;;;;;;20.23;47.90;100219.34;1697987;83;21049;-71
2022/07/03 00:31:49;;;;;;;4.05;2.85;;;;;;;20.20;47.93;100216.64;1673608;85;21518;-69
2022/07/03 00:34:17;;;;;;;19.45;17.35;;;;;;;20.16;48.39;100210.70;1673581;85;21061;-68
2022/07/03 00:36:46;;;;;;;9.63;8.03;;;;;;;20.11;49.50;100208.06;1673626;85;21045;-67
2022/07/03 00:39:13;;;;;;;6.65;5.03;;;;;;;20.15;49.96;100212.63;1673521;85;20999;-68
2022/07/03 00:41:40;;;;;;;3.70;3.27;;;;;;;20.22;49.46;100206.78;1673863;85;21492;-66
2022/07/03 00:44:06;;;;;;;6.55;3.65;;;;;;;20.21;49.50;100204.60;1659608;84;21076;-69
2022/07/03 00:46:33;;;;;;;3.10;2.58;;;;;;;20.17;49.56;100200.86;1672308;84;21581;-66
2022/07/03 00:49:00;;;;;;;11.95;3.10;;;;;;;20.15;49.72;100195.42;1659933;85;21273;-65
2022/07/03 00:51:28;;;;;;;4.72;2.35;;;;;;;20.15;49.79;100196.79;1687228;84;20953;-67
2022/07/03 00:53:59;;;;;;;4.03;2.58;;;;;;;20.17;49.80;100194.58;1698937;84;21006;-69
2022/07/03 00:56:29;;;;;;;4.22;2.98;;;;;;;20.17;49.84;100196.77;1673740;85;21061;-67
2022/07/03 00:58:57;;;;;;;9.25;3.20;;;;;;;20.16;49.97;100195.69;1686725;85;21026;-67
2022/07/03 01:01:28;;;;;;;3.33;2.70;;;;;;;20.15;50.29;100197.60;1677881;84;21382;-66
2022/07/03 01:04:17;;;;;;;3.30;3.00;;;;;;;20.17;50.50;100195.95;1703690;82;20881;-67
2022/07/03 01:06:58;;;;;;;3.80;2.55;;;;;;;20.15;50.68;100189.41;1687388;83;21132;-69
2022/07/03 01:09:49;;;;;;;7.45;3.50;;;;;;;20.15;50.99;100194.06;1672993;85;21070;-69
2022/07/03 01:12:25;;;;;;;4.10;2.70;;;;;;;20.12;51.31;100192.75;1624599;84;21127;-68
2022/07/03 01:15:11;;;;;;;12.60;3.47;;;;;;;20.10;51.58;100188.69;1686630;85;21353;-67
2022/07/03 01:17:39;;;;;;;4.95;3.10;;;;;;;20.11;51.73;100191.67;1686189;84;21140;-71
2022/07/03 01:20:07;;;;;;;3.75;2.67;;;;;;;20.10;51.88;100190.86;1686534;84;20981;-67
2022/07/03 01:22:39;;;;;;;7.22;3.12;;;;;;;20.09;52.32;100196.09;1646014;86;21078;-68
2022/07/03 01:25:26;;;;;;;10.13;3.25;;;;;;;20.06;53.20;100191.77;1690460;82;21156;-68
2022/07/03 01:28:10;;;;;;;7.72;3.22;;;;;;;20.03;53.65;100194.56;1663544;85;21071;-68
2022/07/03 01:30:44;;;;;;;3.70;2.77;;;;;;;19.99;54.21;100202.55;1688190;85;21021;-68
2022/07/03 01:33:23;;;;;;;10.28;2.95;;;;;;;19.95;55.51;100197.41;1675355;84;20981;-67
2022/07/03 01:36:06;;;;;;;5.87;3.15;;;;;;;19.93;55.11;100195.55;1687121;84;21046;-68
2022/07/03 01:38:36;;;;;;;4.60;2.47;;;;;;;19.89;54.33;100195.89;1718714;82;21040;-68
2022/07/03 01:41:04;;;;;;;3.30;2.47;;;;;;;19.88;53.79;100196.99;1710564;82;21806;-67
2022/07/03 01:43:34;;;;;;;13.08;4.58;;;;;;;19.86;53.46;100193.74;1686592;84;21081;-67
2022/07/03 01:46:03;;;;;;;7.92;3.52;;;;;;;19.84;53.02;100198.70;1672736;85;21048;-68
2022/07/03 01:48:32;;;;;;;4.28;3.00;;;;;;;19.82;52.49;100191.91;1703489;84;20992;-69
2022/07/03 01:51:00;;;;;;;6.37;3.77;;;;;;;19.80;52.16;100190.86;1689454;83;21060;-68
2022/07/03 01:53:29;;;;;;;4.85;2.55;;;;;;;19.79;51.82;100193.88;1688032;85;22829;-69
2022/07/03 01:55:59;;;;;;;6.17;2.52;;;;;;;19.77;51.70;100192.80;1701772;82;20949;-69
2022/07/03 01:58:27;;;;;;;11.83;2.50;;;;;;;19.76;51.51;100193.13;1688353;85;21014;-69
2022/07/03 02:01:21;;;;;;;3.22;2.52;;;;;;;19.75;51.41;100186.85;1688164;85;21003;-70
2022/07/03 02:03:59;;;;;;;5.03;3.02;;;;;;;19.74;51.51;100187.14;1688097;83;21092;-69
2022/07/03 02:06:42;;;;;;;6.65;2.33;;;;;;;19.74;51.44;100186.59;1703586;84;21587;-70
2022/07/03 02:09:11;;;;;;;2.87;2.27;;;;;;;19.73;51.31;100193.15;1661676;85;21805;-70
2022/07/03 02:11:43;;;;;;;3.58;2.65;;;;;;;19.73;51.03;100193.70;1657791;85;21049;-68
2022/07/03 02:14:24;;;;;;;3.40;2.25;;;;;;;19.74;50.84;100188.50;1702194;83;20971;-68
2022/07/03 02:17:18;;;;;;;2.90;2.47;;;;;;;19.73;50.52;100186.33;1702668;82;20992;-69
2022/07/03 02:19:58;;;;;;;4.97;2.98;;;;;;;19.73;50.40;100189.05;1702154;83;21264;-68
2022/07/03 02:22:38;;;;;;;6.58;2.45;;;;;;;19.75;50.43;100181.94;1687310;84;22128;-68
2022/07/03 02:25:09;;;;;;;3.40;2.30;;;;;;;19.76;50.50;100186.30;1689467;83;20976;-68
2022/07/03 02:27:46;;;;;;;3.40;1.92;;;;;;;19.76;50.52;100184.35;1703229;83;21051;-70
2022/07/03 02:30:13;;;;;;;8.48;2.52;;;;;;;19.77;50.20;100180.52;1703492;83;21019;-67
2022/07/03 02:32:46;;;;;;;3.83;2.70;;;;;;;19.76;50.48;100187.08;1715705;83;21263;-69
2022/07/03 02:35:29;;;;;;;2.83;2.55;;;;;;;19.76;50.58;100188.45;1718566;82;20972;-68
2022/07/03 02:38:17;;;;;;;2.70;2.50;;;;;;;19.75;50.77;100186.85;1705316;83;21094;-69
2022/07/03 02:41:04;;;;;;;4.20;2.02;;;;;;;19.73;50.78;100189.05;1680066;85;21013;-69
2022/07/03 02:43:45;;;;;;;3.42;2.35;;;;;;;19.72;50.98;100183.33;1645751;86;21025;-68
2022/07/03 02:46:50;;;;;;;4.67;2.52;;;;;;;19.71;51.19;100185.02;1675374;85;21662;-69
2022/07/03 02:49:39;;;;;;;9.45;2.00;;;;;;;19.73;51.35;100186.88;1662951;84;21065;-70
2022/07/03 02:52:37;;;;;;;4.22;2.67;;;;;;;19.73;51.35;100181.42;1703765;83;21505;-69
2022/07/03 02:55:12;;;;;;;2.92;2.22;;;;;;;19.71;51.10;100176.25;1703629;82;21023;-69
2022/07/03 02:57:40;;;;;;;2.98;1.92;;;;;;;19.74;50.35;100182.49;1670495;85;21002;-70
2022/07/03 03:00:11;;;;;;;5.03;2.70;;;;;;;19.76;50.08;100178.89;1699075;83;21176;-69
2022/07/03 03:02:55;;;;;;;4.70;2.17;;;;;;;19.79;50.07;100184.33;1688787;84;21013;-70
2022/07/03 03:05:39;;;;;;;5.58;2.72;;;;;;;19.82;50.03;100183.17;1673652;85;21024;-74
2022/07/03 03:08:19;;;;;;;7.97;2.83;;;;;;;19.85;49.90;100174.95;1688116;84;21021;-69
2022/07/03 03:10:51;;;;;;;5.00;2.90;;;;;;;19.86;49.97;100181.45;1673912;85;21012;-70
2022/07/03 03:13:19;;;;;;;7.87;5.28;;;;;;;19.88;49.89;100176.52;1685849;84;21252;-71
2022/07/03 03:16:09;;;;;;;19.90;9.50;;;;;;;19.90;50.00;100186.56;1686343;85;21073;-67
2022/07/03 03:18:40;;;;;;;5.50;4.00;;;;;;;19.92;49.97;100186.28;1686789;84;21121;-70
2022/07/03 03:21:18;;;;;;;3.40;2.75;;;;;;;19.93;49.96;100185.98;1687164;84;21060;-69
2022/07/03 03:23:52;;;;;;;4.62;2.83;;;;;;;19.96;49.67;100184.02;1718027;83;21017;-68
2022/07/03 03:26:22;;;;;;;3.10;2.55;;;;;;;19.98;49.58;100188.63;1700537;84;21481;-69
2022/07/03 03:28:49;;;;;;;4.37;3.37;;;;;;;20.00;49.64;100192.41;1660155;85;21044;-69
2022/07/03 03:31:18;;;;;;;4.78;3.95;;;;;;;20.00;49.69;100188.31;1680796;83;21567;-68
2022/07/03 03:33:47;;;;;;;6.17;2.72;;;;;;;20.01;49.57;100182.56;1715430;83;21050;-68
2022/07/03 03:36:17;;;;;;;5.05;2.95;;;;;;;20.03;49.37;100180.91;1686644;84;21613;-67
2022/07/03 03:38:45;;;;;;;4.20;3.05;;;;;;;20.05;49.41;100179.25;1703338;83;22030;-68
2022/07/03 03:41:12;;;;;;;6.87;5.03;;;;;;;20.06;49.51;100190.41;1687067;83;21121;-69
2022/07/03 03:43:41;;;;;;;14.25;6.85;;;;;;;20.05;49.64;100187.44;1686742;85;20982;-68
2022/07/03 03:46:07;;;;;;;8.88;5.37;;;;;;;20.07;49.53;100186.56;1686497;84;20954;-69
2022/07/03 03:48:34;;;;;;;10.25;5.37;;;;;;;20.07;49.63;100184.65;1686415;85;21092;-68
2022/07/03 03:51:02;;;;;;;5.95;4.22;;;;;;;20.09;49.38;100184.36;1686362;84;21336;-68
2022/07/03 03:53:29;;;;;;;5.33;3.08;;;;;;;20.11;49.44;100188.39;1675163;85;21166;-68
2022/07/03 03:56:08;;;;;;;8.63;3.22;;;;;;;20.13;49.47;100181.28;1671799;84;21257;-68
2022/07/03 03:58:36;;;;;;;3.67;2.27;;;;;;;20.14;49.25;100181.54;1688116;85;21510;-67
2022/07/03 04:01:05;;;;;;;3.08;2.62;;;;;;;20.16;49.41;100187.49;1687874;83;21080;-69
2022/07/03 04:03:33;;;;;;;3.55;2.30;;;;;;;20.18;49.52;100190.75;1699383;84;21047;-67
2022/07/03 04:06:00;;;;;;;7.85;3.10;;;;;;;20.20;49.66;100192.60;1686957;84;20990;-67
2022/07/03 04:08:30;;;;;;;6.03;3.08;;;;;;;20.23;49.71;100194.75;1703753;82;21016;-68
2022/07/03 04:10:57;;;;;;;6.85;2.47;;;;;;;20.26;49.88;100193.58;1682509;85;21579;-68
2022/07/03 04:13:24;;;;;;;10.98;3.00;;;;;;;20.32;50.05;100188.88;1689800;84;21077;-69
2022/07/03 04:15:53;;;;;;;3.35;2.70;;;;;;;20.37;50.14;100184.13;1718228;82;21097;-70
2022/07/03 04:18:20;;;;;;;6.12;2.60;;;;;;;20.44;50.17;100183.15;1718140;82;21026;-69
2022/07/03 04:20:46;;;;;;;9.80;3.60;;;;;;;20.52;50.31;100181.66;1717894;82;21818;-68
2022/07/03 04:23:13;;;;;;;4.33;2.10;;;;;;;20.57;50.04;100185.66;1701452;83;21493;-68
2022/07/03 04:25:40;;;;;;;6.05;3.20;;;;;;;20.64;50.12;100186.59;1686563;85;21036;-67
2022/07/03 04:28:07;;;;;;;5.22;2.60;;;;;;;20.65;50.08;100184.94;1686506;84;21159;-69
2022/07/03 04:30:34;;;;;;;16.67;4.03;;;;;;;20.68;49.92;100186.23;1686649;84;21213;-69
2022/07/03 04:33:00;;;;;;;6.72;2.52;;;;;;;20.70;49.89;100182.66;1684868;83;21374;-68
2022/07/03 04:35:27;;;;;;;4.58;2.37;;;;;;;20.74;49.69;100174.91;1686631;85;21050;-68
2022/07/03 04:37:55;;;;;;;8.40;2.25;;;;;;;20.79;49.46;100172.62;1686764;84;21120;-68
2022/07/03 04:40:21;;;;;;;3.37;2.72;;;;;;;20.85;49.38;100173.58;1686801;85;21923;-68
2022/07/03 04:42:50;;;;;;;4.10;2.20;;;;;;;20.94;49.06;100171.48;1686054;83;21010;-67
2022/07/03 04:45:17;;;;;;;5.78;2.83;;;;;;;21.02;48.83;100175.66;1673877;85;21075;-68
2022/07/03 04:47:43;;;;;;;2.80;2.52;;;;;;;21.09;48.61;100171.16;1686890;84;21057;-70
2022/07/03 04:50:10;;;;;;;5.50;3.10;;;;;;;21.16;48.63;100168.27;1703239;84;21044;-69
2022/07/03 04:52:37;;;;;;;3.25;2.72;;;;;;;21.25;48.33;100171.07;1703543;84;21152;-70
2022/07/03 04:55:07;;;;;;;4.72;2.67;;;;;;;21.31;48.30;100166.55;1700772;82;21100;-68
2022/07/03 04:57:34;;;;;;;4.20;2.60;;;;;;;21.40;48.37;100165.80;1662093;85;21172;-67
2022/07/03 05:00:01;;;;;;;3.87;2.27;;;;;;;21.46;48.37;100167.31;1696587;84;21089;-67
2022/07/03 05:02:28;;;;;;;4.72;3.70;;;;;;;21.53;48.43;100166.33;1691879;84;21056;-69
2022/07/03 05:04:54;;;;;;;3.17;2.85;;;;;;;21.67;48.40;100170.62;1728106;82;21104;-67
2022/07/03 05:07:22;;;;;;;10.05;3.37;;;;;;;21.74;48.24;100161.95;1706587;83;20984;-68
2022/07/03 05:09:49;;;;;;;10.53;2.45;;;;;;;21.74;48.24;100161.95;1702822;83;21035;-68
2022/07/03 05:12:17;;;;;;;7.90;2.37;;;;;;;21.83;47.83;100164.74;1668705;85;21094;-67
2022/07/03 05:14:45;;;;;;;6.78;3.50;;;;;;;21.90;47.46;100163.75;1696700;84;21028;-67
2022/07/03 05:17:12;;;;;;;6.72;3.08;;;;;;;21.96;47.22;100160.61;1706714;84;21130;-70
2022/07/03 05:19:38;;;;;;;3.25;2.75;;;;;;;22.04;46.91;100159.84;1706896;84;21020;-66
2022/07/03 05:22:05;;;;;;;4.67;2.58;;;;;;;22.10;46.98;100152.30;1709409;82;20961;-66
2022/07/03 05:24:32;;;;;;;3.65;2.42;;;;;;;22.18;47.53;100156.44;1720714;82;21060;-67
2022/07/03 05:27:00;;;;;;;6.78;2.92;;;;;;;22.26;47.79;100158.96;1695951;84;21033;-66
2022/07/03 05:29:27;;;;;;;6.60;2.40;;;;;;;22.34;47.24;100160.14;1695572;84;22015;-67
2022/07/03 05:31:53;;;;;;;14.58;11.33;;;;;;;22.40;46.93;100156.11;1696892;84;21467;-66
2022/07/03 05:34:20;;;;;;;11.10;5.92;;;;;;;22.45;46.80;100159.52;1695776;84;20949;-67
2022/07/03 05:36:47;;;;;;;6.33;3.25;;;;;;;22.52;46.74;100157.70;1694472;84;21084;-68
2022/07/03 05:39:31;;;;;;;5.37;2.52;;;;;;;22.60;46.07;100150.88;1695901;84;21076;-68
2022/07/03 05:42:01;;;;;;;13.85;2.95;;;;;;;22.68;45.68;100154.78;1709709;83;21109;-68
2022/07/03 05:44:28;;;;;;;3.98;2.50;;;;;;;22.77;45.57;100152.08;1678744;85;21522;-69
2022/07/03 05:46:54;;;;;;;6.78;3.12;;;;;;;22.84;45.53;100144.17;1694626;83;21017;-68
2022/07/03 05:49:21;;;;;;;4.22;3.08;;;;;;;22.91;45.36;100145.33;1695738;84;21079;-68
2022/07/03 05:51:48;;;;;;;2.05;1.90;;;;;;;23.00;45.48;100147.52;1696370;84;21574;-68
2022/07/03 05:54:14;;;;;;;4.55;2.47;;;;;;;23.08;45.03;100140.97;1708232;83;21198;-68
2022/07/03 05:56:41;;;;;;;2.80;2.47;;;;;;;23.16;44.78;100142.94;1703434;83;21076;-71
2022/07/03 05:59:08;;;;;;;8.78;2.85;;;;;;;23.25;44.49;100142.37;1702828;82;21061;-66
2022/07/03 06:01:35;;;;;;;10.65;7.33;;;;;;;23.32;44.21;100144.86;1687829;83;20971;-68
2022/07/03 06:04:02;;;;;;;8.15;3.55;;;;;;;23.39;43.75;100142.45;1703733;84;21023;-69
2022/07/03 06:06:29;;;;;;;10.00;3.45;;;;;;;23.46;42.49;100137.30;1703310;82;21293;-69
2022/07/03 06:08:56;;;;;;;5.33;3.35;;;;;;;23.56;42.19;100134.78;1687957;84;21037;-68
2022/07/03 06:11:23;;;;;;;6.55;4.95;;;;;;;23.66;41.54;100139.94;1703559;83;21014;-68
2022/07/03 06:13:50;;;;;;;6.53;2.85;;;;;;;23.73;41.66;100138.89;1703587;82;21035;-66
2022/07/03 06:16:18;;;;;;;4.95;2.90;;;;;;;23.81;40.54;100143.55;1688029;84;21030;-67
2022/07/03 06:18:45;;;;;;;4.50;2.80;;;;;;;23.85;40.02;100138.20;1687895;84;21171;-67
2022/07/03 06:21:11;;;;;;;4.25;2.15;;;;;;;23.90;39.80;100138.02;1703417;82;20975;-67
2022/07/03 06:23:39;;;;;;;5.67;2.50;;;;;;;23.94;39.97;100145.84;1688062;85;21005;-68
2022/07/03 06:26:06;;;;;;;5.65;2.40;;;;;;;24.00;39.83;100152.78;1701817;82;21102;-69
2022/07/03 06:28:33;;;;;;;5.25;3.60;;;;;;;24.02;39.48;100144.23;1686030;83;21042;-68
2022/07/03 06:31:00;;;;;;;6.03;3.20;;;;;;;24.04;40.13;100142.75;1688004;84;21146;-68
2022/07/03 06:33:27;;;;;;;5.03;3.33;;;;;;;24.06;40.35;100141.86;1703635;84;21015;-67
2022/07/03 06:35:53;;;;;;;3.60;2.90;;;;;;;24.09;40.24;100134.89;1703657;84;21067;-68
2022/07/03 06:38:20;;;;;;;4.70;3.02;;;;;;;24.13;40.16;100135.28;1703540;83;21031;-69
2022/07/03 06:40:47;;;;;;;4.45;3.42;;;;;;;24.17;40.16;100132.13;1703389;83;21334;-69
2022/07/03 06:43:14;;;;;;;7.25;2.80;;;;;;;24.22;40.13;100129.20;1703299;82;21345;-67
2022/07/03 06:45:40;;;;;;;7.92;5.75;;;;;;;24.27;40.05;100129.02;1686604;83;20961;-69
2022/07/03 06:48:07;;;;;;;8.85;4.03;;;;;;;24.33;40.41;100123.59;1685893;85;21061;-68
2022/07/03 06:50:33;;;;;;;4.22;2.70;;;;;;;24.41;40.15;100131.57;1683580;85;21339;-70
2022/07/03 06:53:00;;;;;;;3.42;3.00;;;;;;;24.49;40.14;100134.03;1703614;84;21044;-68
2022/07/03 06:55:28;;;;;;;3.08;2.77;;;;;;;24.54;39.43;100130.52;1706762;83;22177;-69
2022/07/03 06:57:54;;;;;;;3.37;2.95;;;;;;;24.60;39.27;100131.14;1703206;84;21039;-68
2022/07/03 07:00:22;;;;;;;3.47;3.17;;;;;;;24.65;39.53;100128.20;1704186;82;21028;-69
2022/07/03 07:02:49;;;;;;;3.80;3.08;;;;;;;24.70;39.22;100121.11;1687096;83;21020;-69
2022/07/03 07:05:16;;;;;;;5.12;2.90;;;;;;;24.75;39.47;100127.23;1703535;82;21496;-68
2022/07/03 07:07:42;;;;;;;5.75;3.05;;;;;;;24.81;39.16;100123.72;1687918;85;21141;-70
2022/07/03 07:10:12;;;;;;;5.20;3.30;;;;;;;24.88;38.80;100127.35;1702701;83;21560;-69
2022/07/03 07:12:38;;;;;;;5.58;2.70;;;;;;;24.90;38.68;100126.43;1686174;83;21062;-69
2022/07/03 07:15:06;;;;;;;4.75;2.80;;;;;;;24.90;38.62;100124.48;1703788;82;21053;-70
2022/07/03 07:17:33;;;;;;;6.22;3.47;;;;;;;24.89;38.72;100124.25;1676495;84;21156;-69
2022/07/03 07:20:00;;;;;;;3.35;2.87;;;;;;;24.88;38.81;100124.60;1703349;82;21492;-71
2022/07/03 07:22:28;;;;;;;8.08;5.85;;;;;;;24.89;39.20;100117.36;1688137;84;20903;-69
2022/07/03 07:24:55;;;;;;;4.50;3.70;;;;;;;24.96;39.47;100123.72;1716694;82;21107;-70
2022/07/03 07:27:22;;;;;;;6.33;3.00;;;;;;;24.99;39.66;100118.34;1687868;84;21558;-70
2022/07/03 07:29:49;;;;;;;4.47;3.35;;;;;;;25.05;39.85;100121.14;1704653;82;22095;-68
2022/07/03 07:32:15;;;;;;;6.78;2.83;;;;;;;25.15;39.97;100115.80;1702074;84;21371;-70
2022/07/03 07:34:42;;;;;;;5.70;2.90;;;;;;;25.24;39.80;100117.91;1703752;83;21052;-69
2022/07/03 07:37:09;;;;;;;6.83;3.10;;;;;;;25.30;39.27;100124.02;1703948;83;20987;-69
2022/07/03 07:39:36;;;;;;;7.33;3.67;;;;;;;25.29;39.02;100114.95;1700564;83;20956;-69
2022/07/03 07:42:04;;;;;;;6.75;3.52;;;;;;;25.27;39.17;100115.06;1717085;83;21036;-69
2022/07/03 07:44:32;;;;;;;5.35;3.05;;;;;;;25.29;39.27;100109.44;1681162;83;21781;-68
2022/07/03 07:46:59;;;;;;;3.30;2.92;;;;;;;25.31;39.47;100115.43;1701726;84;21051;-68
2022/07/03 07:49:25;;;;;;;3.15;2.90;;;;;;;25.37;39.19;100109.15;1686654;84;21515;-70
2022/07/03 07:51:53;;;;;;;3.80;3.37;;;;;;;25.42;39.26;100108.34;1703043;84;21020;-69
2022/07/03 07:54:20;;;;;;;6.03;3.33;;;;;;;25.49;39.21;100107.80;1688213;85;20989;-68
2022/07/03 07:56:46;;;;;;;4.70;3.70;;;;;;;25.58;39.43;100109.92;1703400;84;21523;-69
2022/07/03 07:59:12;;;;;;;4.12;3.70;;;;;;;25.71;39.44;100120.44;1703406;83;21540;-67
2022/07/03 08:06:55;;;;;;;3.47;3.17;;;;;;;25.92;38.59;100112.89;1703282;82;21521;-70
2022/07/03 08:09:22;;;;;;;3.70;3.40;;;;;;;25.93;38.70;100108.99;1702707;82;21266;-70
2022/07/03 08:11:49;;;;;;;3.33;3.12;;;;;;;25.99;38.88;100113.92;1713237;83;20984;-70
2022/07/03 08:14:16;;;;;;;9.50;8.53;;;;;;;26.01;38.54;100110.27;1646380;86;21508;-68
2022/07/03 08:16:45;;;;;;;5.37;4.87;;;;;;;26.03;38.46;100110.73;1679065;85;21144;-69
2022/07/03 08:19:11;;;;;;;4.72;4.15;;;;;;;26.04;38.09;100108.78;1676143;84;21544;-68
2022/07/03 08:21:38;;;;;;;6.55;2.90;;;;;;;26.04;38.19;100110.94;1687254;84;21061;-69
2022/07/03 08:24:06;;;;;;;3.95;3.60;;;;;;;26.07;38.50;100121.07;1703565;83;21534;-68
2022/07/03 08:26:33;;;;;;;7.22;3.47;;;;;;;26.11;38.34;100115.91;1689290;84;21016;-68
2022/07/03 08:29:00;;;;;;;7.85;3.30;;;;;;;26.20;38.44;100109.70;1703526;84;21051;-70
2022/07/03 08:31:26;;;;;;;5.28;3.90;;;;;;;26.30;38.78;100113.99;1705493;82;21465;-68
2022/07/03 08:33:53;;;;;;;5.42;3.05;;;;;;;26.43;38.21;100120.54;1688098;84;21194;-68
2022/07/03 08:36:19;;;;;;;2.87;2.67;;;;;;;26.52;37.93;100116.88;1701097;83;20989;-68
2022/07/03 08:38:46;;;;;;;12.13;4.12;;;;;;;26.59;37.84;100115.70;1700672;83;21016;-68
2022/07/03 08:41:13;;;;;;;13.45;4.62;;;;;;;26.69;37.93;100114.67;1686061;84;21608;-70
2022/07/03 08:43:39;;;;;;;6.87;3.08;;;;;;;26.78;38.28;100119.48;1708781;82;21044;-68
2022/07/03 08:46:06;;;;;;;4.80;4.12;;;;;;;26.85;37.72;100121.67;1685761;84;21434;-68
2022/07/03 08:48:34;;;;;;;3.83;3.52;;;;;;;26.86;37.38;100121.90;1665380;84;21500;-70
2022/07/03 08:51:03;;;;;;;4.25;3.85;;;;;;;26.85;37.39;100121.09;1687966;84;20985;-68
2022/07/03 08:53:30;;;;;;;3.77;3.05;;;;;;;26.88;37.08;100125.13;1689728;82;21046;-69
2022/07/03 08:55:56;;;;;;;4.28;3.83;;;;;;;26.91;37.03;100122.27;1702907;83;20964;-68
2022/07/03 08:58:24;;;;;;;5.10;3.58;;;;;;;26.98;37.21;100116.94;1691820;84;21159;-68
2022/07/03 09:00:52;;;;;;;6.08;4.08;;;;;;;27.07;36.97;100111.51;1695575;84;21094;-69
2022/07/03 09:03:19;;;;;;;3.20;2.90;;;;;;;27.05;36.94;100111.04;1697275;84;21035;-68
2022/07/03 09:05:46;;;;;;;6.25;4.03;;;;;;;27.11;36.92;100115.17;1711862;83;21051;-68
2022/07/03 09:08:15;;;;;;;3.55;3.25;;;;;;;27.03;37.13;100109.22;1697221;84;21026;-70
2022/07/03 09:10:41;;;;;;;3.60;3.27;;;;;;;26.95;37.12;100108.80;1697202;84;21698;-70
2022/07/03 09:13:09;;;;;;;5.90;3.77;;;;;;;26.93;37.08;100112.47;1699507;84;20969;-69
2022/07/03 09:15:37;;;;;;;4.12;3.72;;;;;;;26.94;37.19;100105.80;1655178;84;21528;-67
2022/07/03 09:18:06;;;;;;;5.10;4.10;;;;;;;27.00;37.18;100098.08;1692752;83;21018;-69
2022/07/03 09:20:40;;;;;;;3.52;3.22;;;;;;;27.03;37.16;100103.70;1679744;84;21022;-68
2022/07/03 09:23:19;;;;;;;5.62;4.75;;;;;;;27.09;37.22;100094.03;1698922;84;21234;-70
2022/07/03 09:25:58;;;;;;;4.30;3.90;;;;;;;27.25;37.14;100096.82;1697409;84;20989;-68
2022/07/03 09:28:52;;;;;;;4.53;4.12;;;;;;;27.41;37.20;100094.92;1657457;84;20968;-68
2022/07/03 09:31:22;;;;;;;5.03;4.05;;;;;;;27.58;37.19;100095.20;1668398;86;21001;-68
2022/07/03 09:34:00;;;;;;;7.05;5.10;;;;;;;27.66;36.69;100090.92;1694752;83;21041;-68
2022/07/03 09:36:45;;;;;;;6.85;4.47;;;;;;;27.80;36.45;100099.35;1695691;84;21970;-69
2022/07/03 09:39:34;;;;;;;8.78;5.33;;;;;;;27.92;36.61;100095.12;1696426;84;20937;-68
2022/07/03 09:42:02;;;;;;;4.78;3.70;;;;;;;27.97;36.28;100094.84;1697270;84;20976;-69
2022/07/03 09:44:41;;;;;;;4.27;3.87;;;;;;;28.04;36.35;100098.62;1655923;86;21019;-69
2022/07/03 09:47:38;;;;;;;4.12;3.75;;;;;;;28.15;36.79;100093.39;1697148;84;21080;-69
2022/07/03 09:50:11;;;;;;;9.20;4.67;;;;;;;28.24;36.53;100089.05;1697074;83;21281;-69
2022/07/03 09:52:40;;;;;;;5.83;4.10;;;;;;;28.22;36.24;100089.40;1676896;84;21047;-69
2022/07/03 09:55:17;;;;;;;4.90;3.62;;;;;;;28.25;35.86;100090.05;1649868;86;21040;-69
2022/07/03 09:57:56;;;;;;;7.83;4.78;;;;;;;28.25;35.68;100090.05;1690719;84;21049;-69
2022/07/03 10:00:25;;;;;;;13.90;4.58;;;;;;;28.17;35.87;100085.52;1689687;85;21084;-68
2022/07/03 10:03:05;;;;;;;5.67;5.17;;;;;;;28.15;36.19;100090.63;1686690;83;21207;-69
2022/07/03 10:05:38;;;;;;;4.75;3.95;;;;;;;28.16;35.40;100089.44;1698085;83;21008;-66
2022/07/03 10:08:12;;;;;;;4.95;4.42;;;;;;;28.16;35.47;100086.67;1701517;83;20973;-69
2022/07/03 10:10:43;;;;;;;5.17;4.28;;;;;;;28.21;35.65;100087.78;1695658;82;21000;-67
2022/07/03 10:13:10;;;;;;;7.55;4.72;;;;;;;28.31;35.51;100081.71;1684666;83;21077;-68
2022/07/03 10:15:38;;;;;;;12.85;5.37;;;;;;;28.44;35.24;100081.81;1686593;85;21145;-68
2022/07/03 10:18:07;;;;;;;6.65;3.87;;;;;;;28.51;34.93;100081.19;1686431;84;21001;-68
2022/07/03 10:20:47;;;;;;;7.05;5.58;;;;;;;28.62;35.01;100082.25;1687495;84;21013;-67
2022/07/03 10:23:15;;;;;;;6.60;4.50;;;;;;;28.58;34.48;100079.98;1670288;83;20956;-69
2022/07/03 10:25:44;;;;;;;3.80;3.50;;;;;;;28.43;34.24;100073.31;1647305;85;21052;-70
2022/07/03 10:28:12;;;;;;;5.35;4.85;;;;;;;28.36;34.15;100075.91;1660221;85;21195;-69
2022/07/03 10:30:44;;;;;;;7.80;5.65;;;;;;;28.34;34.13;100074.09;1636431;86;38622;-69
2022/07/03 10:33:13;;;;;;;4.75;4.30;;;;;;;28.48;34.46;100075.00;1635200;85;21020;-70
2022/07/03 10:35:52;;;;;;;4.87;4.37;;;;;;;28.68;34.13;100077.23;1659524;85;21056;-68
2022/07/03 10:38:39;;;;;;;5.15;4.10;;;;;;;28.89;33.79;100079.09;1671167;84;21111;-69
2022/07/03 10:47:06;;;;;;;5.47;3.90;;;;;;;29.22;33.57;100069.70;1675740;83;21566;-72
2022/07/03 10:49:33;;;;;;;5.12;4.62;;;;;;;29.25;33.67;100066.80;1686178;83;21556;-68
2022/07/03 10:52:06;;;;;;;5.78;3.60;;;;;;;29.25;33.80;100066.22;1693849;83;21040;-71
2022/07/03 10:54:39;;;;;;;7.65;5.42;;;;;;;29.27;33.88;100068.61;1689782;83;21202;-69
2022/07/03 10:57:15;;;;;;;4.37;3.37;;;;;;;29.30;33.91;100067.89;1673181;84;21054;-71
2022/07/03 10:59:47;;;;;;;4.40;3.70;;;;;;;29.36;33.44;100067.82;1658996;85;21467;-69
2022/07/03 11:02:40;;;;;;;;;;;;;;;29.33;33.73;100068.56;1668787;85;21123;-68
2022/07/03 11:05:19;;;;;;;3.87;3.20;;;;;;;29.22;33.63;100071.67;1669075;84;20559;-69
2022/07/03 11:07:58;;;;;;;4.62;4.22;;;;;;;29.12;33.42;100068.09;1669245;85;21190;-68
2022/07/03 11:10:29;;;;;;;3.90;3.60;;;;;;;29.04;33.62;100065.77;1670274;85;21516;-70
2022/07/03 11:13:07;;;;;;;4.50;4.03;;;;;;;28.97;33.69;100061.45;1669096;86;21054;-70
2022/07/03 11:15:54;;;;;;;3.87;3.55;;;;;;;28.95;34.15;100061.84;1661957;84;21074;-71
2022/07/03 11:18:33;;;;;;;4.62;4.22;;;;;;;28.98;34.14;100062.48;1666059;86;21185;-68
2022/07/03 11:21:17;;;;;;;5.78;3.80;;;;;;;28.96;34.08;100057.91;1659940;85;21482;-67
2022/07/03 11:24:09;;;;;;;4.45;4.05;;;;;;;29.01;34.24;100063.17;1689972;84;20951;-69
2022/07/03 11:26:36;;;;;;;6.90;3.77;;;;;;;28.96;34.21;100052.38;1668050;84;21022;-70
2022/07/03 11:29:03;;;;;;;7.45;4.17;;;;;;;28.90;34.02;100057.17;1668995;86;21025;-70
2022/07/03 11:31:30;;;;;;;7.67;4.22;;;;;;;28.86;34.16;100052.14;1670287;84;21007;-70
2022/07/03 11:34:00;;;;;;;4.33;3.92;;;;;;;28.85;34.09;100052.73;1663099;86;21824;-69
2022/07/03 11:36:34;;;;;;;5.03;3.90;;;;;;;28.82;33.98;100049.89;1658673;85;20982;-71
2022/07/03 11:39:05;;;;;;;4.30;3.55;;;;;;;28.73;34.08;100044.53;1642487;87;21093;-71
2022/07/03 11:41:40;;;;;;;4.70;3.60;;;;;;;28.70;34.10;100043.86;1667520;85;21073;-72
2022/07/03 11:44:09;;;;;;;7.05;4.10;;;;;;;28.65;34.40;100035.03;1643384;87;21049;-70
2022/07/03 11:46:38;;;;;;;4.95;4.22;;;;;;;28.63;34.16;100039.56;1660505;86;21118;-69
2022/07/03 11:49:06;;;;;;;4.03;3.35;;;;;;;28.66;34.40;100033.87;1668944;84;21068;-72
2022/07/03 11:51:34;;;;;;;5.87;4.17;;;;;;;28.70;34.56;100035.55;1652392;85;21096;-70
2022/07/03 11:54:01;;;;;;;4.70;3.95;;;;;;;28.69;34.67;100028.98;1657323;85;21531;-71